Time;durP1;ratioP1;P1;durP2;ratioP2;P2;SDS_P1;SDS_P2;PMS_P1;PMS_P2;Temp;Humidity;BMP_temperature;BMP_pressure;BME280_temperature;BME280_humidity;BME280_pressure;Samples;Min_cycle;Max_cycle;Signal;HPM_P1;HPM_P2
2022/04/12 00:01:42;;;;;;;;;;;;;;;27.71;24.29;101065.16;5017045;28;770;-33
2022/04/12 00:04:07;;;;;;;;;;;;;;;27.38;24.05;101054.53;5017267;28;855;-37
2022/04/12 00:06:32;;;;;;;;;;;;;;;27.23;24.55;101058.00;5022662;28;842;-35
2022/04/12 00:08:58;;;;;;;;;;;;;;;27.24;24.58;101058.84;5016768;28;831;-36
2022/04/12 00:11:24;;;;;;;;;;;;;;;27.37;24.69;101051.00;5021933;28;951;-33
2022/04/12 00:13:49;;;;;;;;;;;;;;;27.54;24.48;101050.06;5023765;28;1363;-32
2022/04/12 00:16:14;;;;;;;;;;;;;;;27.43;24.57;101046.75;5022418;28;1902;-35
2022/04/12 00:21:24;;;;;;;;;;;;;;;27.29;24.42;101052.91;5025354;28;651;-32
2022/04/12 00:23:49;;;;;;;;;;;;;;;27.24;24.52;101040.75;5035801;28;810;-31
2022/04/12 00:26:14;;;;;;;;;;;;;;;27.72;23.91;101047.94;5026999;28;1034;-37
2022/04/12 00:28:41;;;;;;;;;;;;;;;27.80;23.99;101048.88;5020026;28;1234;-35
2022/04/12 00:31:07;;;;;;;;;;;;;;;27.43;24.11;101046.75;5026109;28;763;-34
2022/04/12 00:33:32;;;;;;;;;;;;;;;27.34;24.24;101042.41;5021330;28;956;-37
2022/04/12 00:36:00;;;;;;;;;;;;;;;27.27;24.27;101044.97;5022562;28;1910;-35
2022/04/12 00:38:27;;;;;;;;;;;;;;;27.72;23.84;101039.84;5016391;28;1298;-31
2022/04/12 00:40:54;;;;;;;;;;;;;;;27.78;23.88;101050.97;5020806;28;983;-32
2022/04/12 00:43:19;;;;;;;;;;;;;;;27.55;23.83;101047.19;5016883;28;829;-35
2022/04/12 00:45:45;;;;;;;;;;;;;;;27.36;24.29;101051.19;5018091;28;837;-33
2022/04/12 00:48:10;;;;;;;;;;;;;;;27.24;24.51;101056.13;5016533;28;1045;-33
2022/04/12 00:50:36;;;;;;;;;;;;;;;27.36;24.53;101045.78;5019036;28;1080;-34
2022/04/12 00:53:01;;;;;;;;;;;;;;;27.69;24.00;101045.59;5016452;28;786;-32
2022/04/12 00:55:28;;;;;;;;;;;;;;;27.59;24.51;101048.47;5027497;28;1905;-35
2022/04/12 00:57:53;;;;;;;;;;;;;;;27.54;23.97;101047.34;5027744;28;877;-35
2022/04/12 01:00:18;;;;;;;;;;;;;;;27.36;24.48;101045.78;5031512;28;991;-34
2022/04/12 01:02:44;;;;;;;;;;;;;;;27.30;24.67;101043.78;5016227;28;830;-33
2022/04/12 01:05:09;;;;;;;;;;;;;;;27.55;24.32;101041.78;5016442;28;741;-35
2022/04/12 01:07:35;;;;;;;;;;;;;;;27.70;24.29;101049.97;5017105;28;789;-30
2022/04/12 01:10:00;;;;;;;;;;;;;;;27.55;24.09;101051.72;5019191;28;897;-35
2022/04/12 01:12:28;;;;;;;;;;;;;;;27.40;24.45;101044.41;5030619;28;869;-37
2022/04/12 01:14:53;;;;;;;;;;;;;;;27.33;24.18;101046.13;5015914;28;967;-34
2022/04/12 01:17:19;;;;;;;;;;;;;;;27.18;24.86;101051.41;5016432;28;1961;-34
2022/04/12 01:19:44;;;;;;;;;;;;;;;27.82;23.98;101050.41;5017177;28;853;-30
2022/04/12 01:22:13;;;;;;;;;;;;;;;27.81;24.13;101047.88;5020304;28;827;-32
2022/04/12 01:24:38;;;;;;;;;;;;;;;27.51;24.18;101051.25;5026643;28;770;-35
2022/04/12 01:27:04;;;;;;;;;;;;;;;27.37;24.05;101040.19;5034757;28;886;-34
2022/04/12 01:29:33;;;;;;;;;;;;;;;27.31;24.58;101048.19;5020168;28;876;-34
2022/04/12 01:31:59;;;;;;;;;;;;;;;27.28;24.50;101045.84;5019568;28;878;-33
2022/04/12 01:34:24;;;;;;;;;;;;;;;27.95;23.89;101054.34;5019933;28;830;-35
2022/04/12 01:36:49;;;;;;;;;;;;;;;27.54;24.49;101058.16;5020142;28;1903;-36
2022/04/12 01:39:15;;;;;;;;;;;;;;;27.47;24.26;101055.34;5020429;28;1211;-34
2022/04/12 01:41:40;;;;;;;;;;;;;;;27.39;23.96;101056.22;5022344;28;1019;-34
2022/04/12 01:44:05;;;;;;;;;;;;;;;27.35;24.32;101060.28;5023551;28;1067;-35
2022/04/12 01:46:31;;;;;;;;;;;;;;;27.52;24.58;101066.44;5019336;28;792;-34
2022/04/12 01:48:56;;;;;;;;;;;;;;;27.92;23.76;101060.13;5023991;28;906;-34
2022/04/12 01:51:22;;;;;;;;;;;;;;;27.54;24.12;101063.56;5021614;28;1422;-32
2022/04/12 01:53:47;;;;;;;;;;;;;;;27.46;24.25;101067.16;5026446;28;814;-33
2022/04/12 01:56:13;;;;;;;;;;;;;;;27.49;24.29;101066.81;5025720;28;1918;-32
2022/04/12 01:58:38;;;;;;;;;;;;;;;27.32;24.59;101063.34;5030581;28;1673;-37
2022/04/12 02:01:03;;;;;;;;;;;;;;;27.82;23.93;101063.94;5027180;28;807;-34
2022/04/12 02:03:29;;;;;;;;;;;;;;;28.01;24.03;101067.13;5018945;28;931;-33
2022/04/12 02:05:54;;;;;;;;;;;;;;;27.70;23.93;101062.66;5018803;28;1445;-33
2022/04/12 02:08:20;;;;;;;;;;;;;;;27.49;24.31;101064.09;5032231;28;800;-34
2022/04/12 02:10:45;;;;;;;;;;;;;;;27.32;24.68;101058.78;5022462;28;1144;-35
2022/04/12 02:13:11;;;;;;;;;;;;;;;27.41;24.63;101059.56;5020331;28;850;-35
2022/04/12 02:15:36;;;;;;;;;;;;;;;27.91;24.08;101066.56;5022328;28;1894;-36
2022/04/12 02:18:01;;;;;;;;;;;;;;;27.87;24.04;101063.38;5019234;28;823;-33
2022/04/12 02:20:27;;;;;;;;;;;;;;;27.55;24.47;101068.78;5018883;28;870;-37
2022/04/12 02:22:53;;;;;;;;;;;;;;;27.53;24.32;101073.53;5018752;28;795;-36
2022/04/12 02:25:18;;;;;;;;;;;;;;;27.58;24.55;101064.88;5019063;28;1054;-34
2022/04/12 02:27:43;;;;;;;;;;;;;;;27.85;24.11;101060.84;5019498;28;884;-35
2022/04/12 02:30:09;;;;;;;;;;;;;;;28.13;24.03;101064.03;5018945;28;815;-34
2022/04/12 02:32:34;;;;;;;;;;;;;;;27.79;24.13;101069.69;5017309;28;807;-37
2022/04/12 02:35:00;;;;;;;;;;;;;;;27.83;24.24;101067.44;5018648;28;785;-31
2022/04/12 02:37:28;;;;;;;;;;;;;;;27.39;24.51;101065.16;5027042;28;1898;-33
2022/04/12 02:39:54;;;;;;;;;;;;;;;27.00;24.57;101071.38;5019171;28;1445;-32
2022/04/12 02:42:19;;;;;;;;;;;;;;;27.45;24.64;101069.03;5037966;28;923;-32
2022/04/12 02:44:44;;;;;;;;;;;;;;;27.64;24.20;101072.28;5037744;28;1457;-33
2022/04/12 02:47:10;;;;;;;;;;;;;;;27.55;24.35;101074.19;5024852;28;758;-36
2022/04/12 02:49:35;;;;;;;;;;;;;;;27.37;24.45;101071.75;5022706;28;1472;-35
2022/04/12 02:52:00;;;;;;;;;;;;;;;27.22;22.52;101071.66;5021475;28;1013;-31
2022/04/12 02:54:26;;;;;;;;;;;;;;;25.61;20.30;101070.25;5029800;28;888;-33
2022/04/12 02:56:51;;;;;;;;;;;;;;;24.43;20.89;101076.03;5024162;28;1906;-33
2022/04/12 02:59:17;;;;;;;;;;;;;;;24.00;21.02;101078.53;5018127;28;791;-31
2022/04/12 03:01:42;;;;;;;;;;;;;;;23.80;21.07;101076.00;5018401;28;850;-31
2022/04/12 03:04:08;;;;;;;;;;;;;;;23.87;21.12;101069.03;5019313;28;813;-34
2022/04/12 03:06:33;;;;;;;;;;;;;;;23.65;21.18;101067.59;5020216;28;770;-33
2022/04/12 03:08:58;;;;;;;;;;;;;;;24.91;21.72;101071.16;5018438;28;921;-35
2022/04/12 03:11:23;;;;;;;;;;;;;;;25.72;20.62;101069.97;5021418;28;1002;-33
2022/04/12 03:13:49;;;;;;;;;;;;;;;25.18;21.60;101071.97;5018131;28;810;-34
2022/04/12 03:16:14;;;;;;;;;;;;;;;25.00;21.51;101079.28;5017993;28;1902;-36
2022/04/12 03:18:39;;;;;;;;;;;;;;;24.90;21.73;101085.63;5018070;28;917;-32
2022/04/12 03:21:05;;;;;;;;;;;;;;;24.88;21.06;101079.53;5017784;28;865;-37
2022/04/12 03:23:30;;;;;;;;;;;;;;;24.89;21.10;101077.69;5017937;28;845;-34
2022/04/12 03:25:55;;;;;;;;;;;;;;;24.80;21.09;101085.72;5019237;28;947;-31
2022/04/12 03:28:20;;;;;;;;;;;;;;;24.79;21.49;101085.88;5017658;28;925;-33
2022/04/12 03:30:46;;;;;;;;;;;;;;;24.84;21.29;101083.53;5020803;28;795;-30
2022/04/12 03:33:11;;;;;;;;;;;;;;;24.52;21.37;101090.41;5017712;28;838;-38
2022/04/12 03:35:36;;;;;;;;;;;;;;;24.18;21.45;101086.59;5017976;28;1898;-36
2022/04/12 03:38:02;;;;;;;;;;;;;;;24.13;21.39;101086.19;5017574;28;1124;-31
2022/04/12 03:40:33;;;;;;;;;;;;;;;24.13;21.11;101087.03;5024107;28;966;-35
2022/04/12 03:42:59;;;;;;;;;;;;;;;24.10;21.08;101090.03;5023920;28;769;-35
2022/04/12 03:45:24;;;;;;;;;;;;;;;25.33;20.74;101098.28;5036112;28;861;-31
2022/04/12 03:47:49;;;;;;;;;;;;;;;26.14;19.41;101100.50;5036485;28;918;-32
2022/04/12 03:50:15;;;;;;;;;;;;;;;24.84;19.83;101099.69;5033523;28;1239;-36
2022/04/12 03:52:40;;;;;;;;;;;;;;;24.57;21.24;101109.59;5024745;28;1334;-38
2022/04/12 03:55:06;;;;;;;;;;;;;;;24.21;21.59;101103.28;5033657;28;1315;-32
2022/04/12 03:57:32;;;;;;;;;;;;;;;24.17;21.98;101111.81;5028158;28;2025;-36
2022/04/12 03:59:58;;;;;;;;;;;;;;;24.13;22.14;101107.69;5020610;28;1524;-32
2022/04/12 04:02:23;;;;;;;;;;;;;;;24.15;22.37;101106.56;5023359;28;1414;-33
2022/04/12 04:04:48;;;;;;;;;;;;;;;24.22;22.74;101106.81;5036569;28;869;-33
2022/04/12 04:07:14;;;;;;;;;;;;;;;24.56;23.49;101110.59;5036382;28;903;-33
2022/04/12 04:09:39;;;;;;;;;;;;;;;24.50;23.39;101112.09;5027949;28;751;-35
2022/04/12 04:12:05;;;;;;;;;;;;;;;24.45;23.34;101115.25;5017351;28;882;-37
2022/04/12 04:14:32;;;;;;;;;;;;;;;24.60;23.73;101113.81;5016975;28;854;-36
2022/04/12 04:17:00;;;;;;;;;;;;;;;24.50;23.92;101119.28;5017242;28;1953;-34
2022/04/12 04:19:25;;;;;;;;;;;;;;;24.59;24.07;101118.34;5015942;28;1335;-34
2022/04/12 04:21:51;;;;;;;;;;;;;;;24.55;24.21;101119.66;5019765;28;797;-35
2022/04/12 04:24:16;;;;;;;;;;;;;;;25.64;22.96;101129.22;5017365;28;834;-34
2022/04/12 04:26:42;;;;;;;;;;;;;;;26.23;22.16;101136.41;5017066;28;770;-35
2022/04/12 04:29:08;;;;;;;;;;;;;;;25.12;23.15;101131.00;5017173;28;1335;-34
2022/04/12 04:31:33;;;;;;;;;;;;;;;24.92;23.76;101137.44;5022814;28;1545;-37
2022/04/12 04:33:58;;;;;;;;;;;;;;;24.72;24.00;101141.31;5024578;28;824;-34
2022/04/12 04:36:23;;;;;;;;;;;;;;;24.69;23.60;101142.47;5027884;28;1905;-33
2022/04/12 04:38:49;;;;;;;;;;;;;;;24.85;23.17;101149.81;5016788;28;1025;-33
2022/04/12 04:41:14;;;;;;;;;;;;;;;24.78;23.42;101151.44;5021536;28;1268;-34
2022/04/12 04:43:40;;;;;;;;;;;;;;;24.66;24.06;101156.22;5024329;28;1375;-34
2022/04/12 04:46:05;;;;;;;;;;;;;;;24.65;24.51;101159.94;5027815;28;1203;-36
2022/04/12 04:48:31;;;;;;;;;;;;;;;24.70;24.47;101163.00;5027296;28;1604;-32
2022/04/12 04:50:56;;;;;;;;;;;;;;;24.86;24.43;101153.34;5031172;28;1390;-35
2022/04/12 04:53:21;;;;;;;;;;;;;;;24.85;24.73;101159.72;5025979;28;1378;-32
2022/04/12 04:55:47;;;;;;;;;;;;;;;24.74;25.27;101155.47;5030347;28;1902;-31
2022/04/12 04:58:13;;;;;;;;;;;;;;;24.74;25.35;101156.28;5025593;28;1177;-34
2022/04/12 05:00:38;;;;;;;;;;;;;;;24.76;25.31;101161.50;5028624;28;1163;-35
2022/04/12 05:03:03;;;;;;;;;;;;;;;24.81;25.30;101164.56;5029249;28;1220;-35
2022/04/12 05:05:29;;;;;;;;;;;;;;;24.87;25.19;101172.03;5037403;28;1219;-34
2022/04/12 05:07:54;;;;;;;;;;;;;;;25.01;25.17;101172.47;5026449;28;1227;-34
2022/04/12 05:10:20;;;;;;;;;;;;;;;24.88;25.57;101167.47;5027922;28;1118;-33
2022/04/12 05:12:45;;;;;;;;;;;;;;;24.90;25.51;101171.75;5032291;28;1291;-31
2022/04/12 05:15:11;;;;;;;;;;;;;;;24.86;25.65;101172.19;5028440;28;1260;-36
2022/04/12 05:17:36;;;;;;;;;;;;;;;25.01;25.53;101180.53;5039086;28;1965;-34
2022/04/12 05:20:01;;;;;;;;;;;;;;;25.10;25.35;101178.75;5033848;28;889;-35
2022/04/12 05:22:27;;;;;;;;;;;;;;;25.02;25.21;101175.03;5033612;28;835;-35
2022/04/12 05:24:52;;;;;;;;;;;;;;;24.87;25.51;101174.72;5031760;28;1307;-33
2022/04/12 05:27:18;;;;;;;;;;;;;;;24.88;25.70;101172.88;5032181;28;1239;-37
2022/04/12 05:29:43;;;;;;;;;;;;;;;25.09;25.53;101180.59;5020228;28;1023;-34
2022/04/12 05:32:09;;;;;;;;;;;;;;;25.06;25.64;101178.22;5019872;28;874;-37
2022/04/12 05:34:35;;;;;;;;;;;;;;;25.13;25.57;101181.13;5026049;28;778;-36
2022/04/12 05:37:01;;;;;;;;;;;;;;;25.22;25.59;101182.88;5029849;28;1961;-35
2022/04/12 05:39:26;;;;;;;;;;;;;;;25.05;25.52;101185.47;5023681;28;1022;-37
2022/04/12 05:41:51;;;;;;;;;;;;;;;25.12;25.52;101187.53;5023571;28;954;-34
2022/04/12 05:44:16;;;;;;;;;;;;;;;25.21;25.74;101189.25;5020007;28;898;-36
2022/04/12 05:46:42;;;;;;;;;;;;;;;25.24;25.10;101196.19;5019675;28;1326;-33
2022/04/12 05:49:07;;;;;;;;;;;;;;;25.21;25.30;101183.88;5020219;28;866;-36
2022/04/12 05:51:32;;;;;;;;;;;;;;;25.23;25.34;101191.78;5024630;28;952;-33
2022/04/12 05:53:58;;;;;;;;;;;;;;;25.29;25.10;101181.22;5019839;28;1433;-33
2022/04/12 05:56:23;;;;;;;;;;;;;;;25.29;25.03;101181.22;5023204;28;1965;-31
2022/04/12 05:58:48;;;;;;;;;;;;;;;25.27;25.15;101183.25;5021426;28;794;-37
2022/04/12 06:01:13;;;;;;;;;;;;;;;25.21;25.36;101193.81;5021244;28;859;-35
2022/04/12 06:03:39;;;;;;;;;;;;;;;25.38;25.44;101190.19;5020941;28;1080;-36
2022/04/12 06:06:04;;;;;;;;;;;;;;;25.51;25.42;101189.75;5022224;28;925;-30
2022/04/12 06:08:29;;;;;;;;;;;;;;;25.58;25.14;101187.25;5020191;28;865;-36
2022/04/12 06:10:55;;;;;;;;;;;;;;;25.72;24.85;101190.38;5018892;28;1358;-33
2022/04/12 06:13:21;;;;;;;;;;;;;;;25.42;25.14;101186.16;5031317;28;826;-34
2022/04/12 06:15:46;;;;;;;;;;;;;;;25.45;25.53;101190.41;5026249;28;1957;-34
2022/04/12 06:18:11;;;;;;;;;;;;;;;25.64;25.49;101192.00;5028301;28;1220;-35
2022/04/12 06:20:37;;;;;;;;;;;;;;;25.75;25.33;101187.34;5033223;28;1176;-36
2022/04/12 06:23:02;;;;;;;;;;;;;;;25.97;24.95;101194.00;5034196;28;1208;-34
2022/04/12 06:25:28;;;;;;;;;;;;;;;25.91;24.87;101192.78;5033958;28;1400;-34
2022/04/12 06:27:53;;;;;;;;;;;;;;;25.97;25.21;101188.59;5037306;28;1270;-31
2022/04/12 06:30:19;;;;;;;;;;;;;;;25.93;25.20;101187.22;5032841;28;1250;-32
2022/04/12 06:32:45;;;;;;;;;;;;;;;25.89;25.27;101183.19;5028812;28;1220;-36
2022/04/12 06:35:11;;;;;;;;;;;;;;;26.01;25.09;101189.09;5024974;28;1252;-33
2022/04/12 06:37:36;;;;;;;;;;;;;;;25.84;25.12;101185.53;5030862;28;1955;-34
2022/04/12 06:40:01;;;;;;;;;;;;;;;25.90;25.13;101195.66;5024017;28;1248;-35
2022/04/12 06:42:27;;;;;;;;;;;;;;;25.84;25.54;101186.34;5034613;28;1437;-37
2022/04/12 06:44:52;;;;;;;;;;;;;;;25.83;25.17;101198.16;5029133;28;794;-33
2022/04/12 06:47:17;;;;;;;;;;;;;;;25.85;25.26;101185.38;5023578;28;1187;-36
2022/04/12 06:49:44;;;;;;;;;;;;;;;25.77;24.43;101191.59;5037865;28;982;-34
2022/04/12 06:52:09;;;;;;;;;;;;;;;25.85;25.29;101198.84;5025653;28;765;-30
2022/04/12 06:54:34;;;;;;;;;;;;;;;25.93;24.96;101203.41;5021684;28;789;-29
2022/04/12 06:57:00;;;;;;;;;;;;;;;25.89;24.88;101196.66;5018413;28;1906;-34
2022/04/12 06:59:25;;;;;;;;;;;;;;;25.92;25.26;101196.34;5018473;28;1430;-37
2022/04/12 07:01:51;;;;;;;;;;;;;;;25.88;25.31;101197.66;5026928;28;1322;-35
2022/04/12 07:04:16;;;;;;;;;;;;;;;26.04;24.99;101196.88;5024646;28;821;-34
2022/04/12 07:06:41;;;;;;;;;;;;;;;25.99;25.19;101199.22;5022620;28;845;-34
2022/04/12 07:09:09;;;;;;;;;;;;;;;25.80;25.33;101199.34;5019344;28;956;-35
2022/04/12 07:11:34;;;;;;;;;;;;;;;25.74;25.75;101199.97;5028576;28;1171;-37
2022/04/12 07:14:00;;;;;;;;;;;;;;;25.84;25.34;101205.22;5018239;28;878;-37
2022/04/12 07:16:25;;;;;;;;;;;;;;;25.75;25.26;101198.13;5029481;28;1902;-38
2022/04/12 07:18:50;;;;;;;;;;;;;;;26.09;24.81;101201.78;5036138;28;806;-34
2022/04/12 07:21:21;;;;;;;;;;;;;;;25.98;25.10;101198.38;5024393;28;960;-33
2022/04/12 07:23:47;;;;;;;;;;;;;;;26.01;25.30;101197.19;5024746;28;1225;-37
2022/04/12 07:26:12;;;;;;;;;;;;;;;26.02;25.03;101190.81;5030128;28;1326;-34
2022/04/12 07:28:38;;;;;;;;;;;;;;;26.06;24.78;101192.16;5027711;28;1362;-37
2022/04/12 07:31:04;;;;;;;;;;;;;;;26.14;24.80;101194.03;5016223;28;1410;-36
2022/04/12 07:33:30;;;;;;;;;;;;;;;26.07;24.66;101193.00;5029214;28;1187;-34
2022/04/12 07:35:55;;;;;;;;;;;;;;;26.02;24.91;101182.72;5023604;28;1989;-34
2022/04/12 07:38:20;;;;;;;;;;;;;;;26.05;24.85;101185.06;5023338;28;1040;-35
2022/04/12 07:40:46;;;;;;;;;;;;;;;26.12;24.73;101179.88;5024830;28;822;-38
2022/04/12 07:43:11;;;;;;;;;;;;;;;26.38;24.86;101187.00;5018997;28;881;-36
2022/04/12 07:45:37;;;;;;;;;;;;;;;26.24;24.60;101188.50;5022081;28;1211;-37
2022/04/12 07:48:02;;;;;;;;;;;;;;;26.20;24.72;101190.66;5025478;28;1241;-36
2022/04/12 07:50:27;;;;;;;;;;;;;;;26.14;24.87;101196.72;5025779;28;1040;-34
2022/04/12 07:52:53;;;;;;;;;;;;;;;26.19;24.79;101193.53;5017355;28;917;-33
2022/04/12 07:55:18;;;;;;;;;;;;;;;26.91;24.18;101192.03;5018423;28;812;-36
2022/04/12 07:57:43;;;;;;;;;;;;;;;27.43;22.48;101181.81;5020738;28;1914;-33
2022/04/12 08:00:09;;;;;;;;;;;;;;;27.60;21.37;101187.16;5022163;28;1235;-34
2022/04/12 08:02:34;;;;;;;;;;;;;;;26.93;22.96;101187.31;5024082;28;1378;-32
2022/04/12 08:05:00;;;;;;;;;;;;;;;26.82;24.21;101187.69;5020375;28;866;-33
2022/04/12 08:07:25;;;;;;;;;;;;;;;26.73;23.65;101182.28;5030982;28;774;-32
2022/04/12 08:09:50;;;;;;;;;;;;;;;27.43;22.76;101195.31;5034603;28;866;-36
2022/04/12 08:12:16;;;;;;;;;;;;;;;27.06;23.62;101188.69;5034419;28;825;-37
2022/04/12 08:14:41;;;;;;;;;;;;;;;26.86;23.96;101186.34;5036537;28;873;-34
2022/04/12 08:17:06;;;;;;;;;;;;;;;26.77;23.86;101188.19;5023052;28;1909;-34
2022/04/12 08:19:32;;;;;;;;;;;;;;;26.61;24.32;101181.78;5017290;28;818;-37
2022/04/12 08:21:57;;;;;;;;;;;;;;;26.52;24.27;101185.50;5016852;28;876;-37
2022/04/12 08:24:22;;;;;;;;;;;;;;;26.83;23.99;101189.34;5022350;28;1149;-37
2022/04/12 08:26:48;;;;;;;;;;;;;;;26.41;22.29;101186.66;5023035;28;1053;-38
2022/04/12 08:29:13;;;;;;;;;;;;;;;26.28;22.24;101177.19;5033832;28;727;-37
2022/04/12 08:31:39;;;;;;;;;;;;;;;26.38;22.74;101181.59;5035101;28;936;-36
2022/04/12 08:34:05;;;;;;;;;;;;;;;26.56;22.84;101167.94;5035547;28;770;-34
2022/04/12 08:36:30;;;;;;;;;;;;;;;27.54;21.90;101185.16;5024970;28;1898;-36
2022/04/12 08:38:55;;;;;;;;;;;;;;;27.91;21.30;101178.22;5016246;28;1286;-37
2022/04/12 08:41:21;;;;;;;;;;;;;;;27.61;20.23;101178.06;5018508;28;738;-35
2022/04/12 08:43:47;;;;;;;;;;;;;;;26.93;21.59;101178.38;5017062;28;912;-36
2022/04/12 08:46:12;;;;;;;;;;;;;;;26.53;21.85;101174.53;5016578;28;856;-37
2022/04/12 08:48:38;;;;;;;;;;;;;;;26.47;21.87;101174.38;5019548;28;825;-38
2022/04/12 08:51:03;;;;;;;;;;;;;;;26.50;21.51;101174.88;5019264;28;1067;-39
2022/04/12 08:53:28;;;;;;;;;;;;;;;26.38;21.00;101182.47;5015767;28;774;-38
2022/04/12 08:55:54;;;;;;;;;;;;;;;26.20;21.52;101169.09;5031718;28;1959;-38
2022/04/12 08:58:20;;;;;;;;;;;;;;;26.78;21.39;101170.97;5035599;28;1029;-37
2022/04/12 09:00:45;;;;;;;;;;;;;;;27.67;20.34;101176.47;5035378;28;821;-34
2022/04/12 09:03:14;;;;;;;;;;;;;;;27.34;19.87;101163.97;5025786;28;994;-35
2022/04/12 09:05:40;;;;;;;;;;;;;;;26.78;20.23;101166.44;5035194;28;1269;-39
2022/04/12 09:08:16;;;;;;;;;;;;;;;26.54;20.97;101151.13;5030778;28;1334;-37
2022/04/12 09:10:41;;;;;;;;;;;;;;;26.49;21.91;101145.38;5026055;28;1589;-39
2022/04/12 09:13:14;;;;;;;;;;;;;;;26.81;21.39;101154.44;5026517;28;794;-38
2022/04/12 09:15:43;;;;;;;;;;;;;;;27.32;21.35;101153.34;5021406;28;1963;-39
2022/04/12 09:18:08;;;;;;;;;;;;;;;26.84;22.01;101155.97;5019912;28;835;-39
2022/04/12 09:20:34;;;;;;;;;;;;;;;26.51;22.20;101152.28;5031290;28;771;-35
2022/04/12 09:23:02;;;;;;;;;;;;;;;26.33;22.85;101148.91;5032302;28;1172;-39
2022/04/12 09:25:27;;;;;;;;;;;;;;;26.12;23.19;101150.22;5026871;28;1290;-38
2022/04/12 09:27:55;;;;;;;;;;;;;;;26.41;22.54;101144.34;5026821;28;981;-39
2022/04/12 09:30:21;;;;;;;;;;;;;;;27.47;21.52;101148.03;5017116;28;854;-38
2022/04/12 09:32:46;;;;;;;;;;;;;;;26.74;21.88;101143.47;5016001;28;811;-36
2022/04/12 09:35:12;;;;;;;;;;;;;;;26.36;22.09;101145.88;5020474;28;849;-38
2022/04/12 09:37:38;;;;;;;;;;;;;;;26.15;23.20;101152.56;5016447;28;1910;-38
2022/04/12 09:40:04;;;;;;;;;;;;;;;27.30;21.76;101159.91;5018182;28;1241;-37
2022/04/12 09:42:48;;;;;;;;;;;;;;;27.68;20.99;101154.72;5019761;28;807;-37
2022/04/12 09:45:13;;;;;;;;;;;;;;;27.51;21.36;101165.56;5019745;28;825;-38
2022/04/12 09:47:39;;;;;;;;;;;;;;;26.76;21.87;101160.34;5019558;28;1536;-38
2022/04/12 09:50:05;;;;;;;;;;;;;;;26.37;22.37;101156.50;5024669;28;1219;-39
2022/04/12 09:52:30;;;;;;;;;;;;;;;26.33;22.72;101152.44;5029611;28;1354;-39
2022/04/12 09:54:56;;;;;;;;;;;;;;;26.16;23.18;101147.00;5031991;28;951;-38
2022/04/12 09:57:21;;;;;;;;;;;;;;;26.31;22.72;101151.72;5027360;28;1930;-40
2022/04/12 09:59:47;;;;;;;;;;;;;;;27.46;21.47;101154.44;5028136;28;1192;-41
2022/04/12 10:02:12;;;;;;;;;;;;;;;27.65;20.84;101143.38;5017250;28;862;-35
2022/04/12 10:04:38;;;;;;;;;;;;;;;26.81;21.61;101143.63;5019854;28;833;-38
2022/04/12 10:07:03;;;;;;;;;;;;;;;26.34;22.43;101154.13;5018860;28;813;-38
2022/04/12 10:09:28;;;;;;;;;;;;;;;26.26;22.03;101149.53;5023544;28;894;-38
2022/04/12 10:11:54;;;;;;;;;;;;;;;26.10;22.83;101152.22;5017849;28;801;-38
2022/04/12 10:14:19;;;;;;;;;;;;;;;27.11;21.94;101159.31;5019719;28;804;-39
2022/04/12 10:16:44;;;;;;;;;;;;;;;27.74;21.27;101158.59;5019705;28;1899;-38
2022/04/12 10:19:10;;;;;;;;;;;;;;;28.02;21.13;101168.91;5024120;28;1444;-38
2022/04/12 10:21:35;;;;;;;;;;;;;;;27.87;20.61;101174.22;5017883;28;766;-39
2022/04/12 10:24:00;;;;;;;;;;;;;;;26.88;22.30;101173.50;5021627;28;940;-39
2022/04/12 10:26:26;;;;;;;;;;;;;;;26.86;23.18;101180.94;5019653;28;1668;-40
2022/04/12 10:28:55;;;;;;;;;;;;;;;26.65;23.44;101187.69;5019153;28;1039;-37
2022/04/12 10:31:21;;;;;;;;;;;;;;;27.32;22.75;101196.56;5026637;28;931;-39
2022/04/12 10:34:09;;;;;;;;;;;;;;;27.82;22.21;101190.13;5018263;28;960;-39
2022/04/12 10:36:52;;;;;;;;;;;;;;;28.15;21.58;101172.84;5027648;28;1926;-34
2022/04/12 10:39:18;;;;;;;;;;;;;;;28.38;21.43;101164.75;5020317;28;1074;-36
2022/04/12 10:41:46;;;;;;;;;;;;;;;28.09;21.55;101153.59;5043154;28;857;-37
2022/04/12 10:44:34;;;;;;;;;;;;;;;27.16;22.70;101156.91;5023924;28;838;-33
2022/04/12 10:47:00;;;;;;;;;;;;;;;26.87;23.13;101158.31;5019977;28;1924;-35
2022/04/12 10:49:26;;;;;;;;;;;;;;;27.77;22.56;101160.06;5022476;28;1426;-36
2022/04/12 10:51:56;;;;;;;;;;;;;;;28.38;21.84;101163.94;5026271;28;1209;-38
2022/04/12 10:54:29;;;;;;;;;;;;;;;27.62;22.46;101163.50;5030965;28;1382;-32
2022/04/12 10:57:13;;;;;;;;;;;;;;;26.97;23.16;101167.09;5034664;28;1959;-34
2022/04/12 10:59:39;;;;;;;;;;;;;;;26.75;23.62;101169.47;5031952;28;1370;-35
2022/04/12 11:02:10;;;;;;;;;;;;;;;26.66;23.62;101181.25;5030033;28;830;-38
2022/04/12 11:04:35;;;;;;;;;;;;;;;27.02;23.31;101186.34;5030608;28;1100;-37
2022/04/12 11:07:01;;;;;;;;;;;;;;;27.84;22.55;101198.91;5022752;28;908;-35
2022/04/12 11:09:27;;;;;;;;;;;;;;;28.26;21.74;101190.53;5023194;28;1246;-37
2022/04/12 11:11:52;;;;;;;;;;;;;;;28.40;21.74;101195.19;5025780;28;1502;-35
2022/04/12 11:14:38;;;;;;;;;;;;;;;27.44;21.64;101202.44;5023340;28;1311;-35
2022/04/12 11:17:10;;;;;;;;;;;;;;;26.94;22.89;101196.28;5020040;28;1961;-33
2022/04/12 11:19:42;;;;;;;;;;;;;;;26.69;23.61;101193.59;5024020;28;823;-32
2022/04/12 11:22:09;;;;;;;;;;;;;;;27.49;22.81;101199.22;5018995;28;845;-36
2022/04/12 11:24:36;;;;;;;;;;;;;;;28.07;22.10;101180.00;5021375;28;886;-35
2022/04/12 11:27:11;;;;;;;;;;;;;;;28.30;21.84;101160.25;5033997;28;850;-38
2022/04/12 11:29:40;;;;;;;;;;;;;;;28.44;21.58;101153.22;5033414;28;774;-33
2022/04/12 11:32:06;;;;;;;;;;;;;;;27.47;22.39;101158.00;5017769;28;802;-37
2022/04/12 11:34:31;;;;;;;;;;;;;;;26.95;23.12;101157.44;5022385;28;781;-37
2022/04/12 11:37:00;;;;;;;;;;;;;;;26.80;23.62;101160.84;5017533;28;1951;-39
2022/04/12 11:39:27;;;;;;;;;;;;;;;27.80;22.57;101159.72;5020536;28;1608;-40
2022/04/12 11:41:56;;;;;;;;;;;;;;;28.20;22.18;101163.19;5020368;28;1143;-34
2022/04/12 11:44:21;;;;;;;;;;;;;;;28.35;22.17;101170.53;5017553;28;814;-36
2022/04/12 11:46:53;;;;;;;;;;;;;;;28.10;21.44;101173.41;5028458;28;1203;-39
2022/04/12 11:49:18;;;;;;;;;;;;;;;27.13;23.41;101189.66;5036529;28;791;-38
2022/04/12 11:51:44;;;;;;;;;;;;;;;26.96;23.38;101186.97;5026400;28;1156;-39
2022/04/12 11:54:28;;;;;;;;;;;;;;;26.77;23.92;101186.34;5017815;28;1690;-40
2022/04/12 11:57:03;;;;;;;;;;;;;;;27.68;23.01;101180.84;5023409;28;1917;-39
2022/04/12 11:59:29;;;;;;;;;;;;;;;28.15;22.48;101162.03;5027151;28;1394;-39
2022/04/12 12:01:59;;;;;;;;;;;;;;;28.32;22.24;101149.22;5017149;28;781;-40
2022/04/12 12:04:28;;;;;;;;;;;;;;;28.55;21.92;101142.97;5018513;28;1342;-38
2022/04/12 12:07:04;;;;;;;;;;;;;;;27.49;22.34;101134.34;5024252;28;1366;-39
2022/04/12 12:09:29;;;;;;;;;;;;;;;27.07;22.45;101134.53;5027665;28;1343;-39
2022/04/12 12:12:02;;;;;;;;;;;;;;;26.83;23.63;101129.97;5026423;28;1362;-35
2022/04/12 12:14:27;;;;;;;;;;;;;;;27.88;22.61;101127.22;5024960;28;1504;-36
2022/04/12 12:17:02;;;;;;;;;;;;;;;28.26;22.14;101110.22;5035153;28;1974;-37
2022/04/12 12:19:28;;;;;;;;;;;;;;;28.46;21.95;101105.16;5025636;28;1183;-38
2022/04/12 12:21:53;;;;;;;;;;;;;;;26.69;22.41;100988.50;5028026;28;1259;-37
2022/04/12 12:24:19;;;;;;;;;;;;;;;27.02;22.71;101091.00;5029391;28;1100;-37
2022/04/12 12:26:44;;;;;;;;;;;;;;;26.90;22.50;101088.63;5030707;28;1057;-39
2022/04/12 12:29:10;;;;;;;;;;;;;;;26.62;23.38;101086.34;5032009;28;1363;-38
2022/04/12 12:31:42;;;;;;;;;;;;;;;27.77;22.55;101081.69;5031861;28;1232;-40
2022/04/12 12:34:07;;;;;;;;;;;;;;;27.78;22.40;101083.41;5031851;28;1227;-40
2022/04/12 12:36:32;;;;;;;;;;;;;;;27.31;22.66;101081.41;5030770;28;1993;-39
2022/04/12 12:38:58;;;;;;;;;;;;;;;27.08;23.16;101073.22;5029449;28;1251;-36
2022/04/12 12:41:30;;;;;;;;;;;;;;;27.12;23.05;101078.13;5020447;28;1011;-38
2022/04/12 12:43:55;;;;;;;;;;;;;;;27.78;22.13;101086.09;5024022;28;1524;-36
2022/04/12 12:46:23;;;;;;;;;;;;;;;27.60;22.95;101084.47;5029311;28;1309;-34
2022/04/12 12:49:04;;;;;;;;;;;;;;;27.51;22.67;101089.91;5019552;28;1338;-32